sensor_id;sensor_type;location;lat;lon;timestamp;P1;durP1;ratioP1;P2;durP2;ratioP2
44722;SDS011;30451;48.638;10.624;2022-08-04T00:02:40;1.38;;;0.90;;
44722;SDS011;30451;48.638;10.624;2022-08-04T00:05:22;1.33;;;1.00;;
44722;SDS011;30451;48.638;10.624;2022-08-04T00:10:54;1.45;;;0.95;;
44722;SDS011;30451;48.638;10.624;2022-08-04T00:13:23;1.10;;;0.70;;
44722;SDS011;30451;48.638;10.624;2022-08-04T00:15:56;1.08;;;0.90;;
44722;SDS011;30451;48.638;10.624;2022-08-04T00:18:26;1.50;;;1.00;;
44722;SDS011;30451;48.638;10.624;2022-08-04T00:20:58;0.95;;;0.80;;
44722;SDS011;30451;48.638;10.624;2022-08-04T00:23:28;1.40;;;0.90;;
44722;SDS011;30451;48.638;10.624;2022-08-04T00:25:57;1.20;;;1.00;;
44722;SDS011;30451;48.638;10.624;2022-08-04T00:28:23;1.30;;;1.00;;
44722;SDS011;30451;48.638;10.624;2022-08-04T00:30:50;1.13;;;0.80;;
44722;SDS011;30451;48.638;10.624;2022-08-04T00:33:18;1.27;;;0.80;;
44722;SDS011;30451;48.638;10.624;2022-08-04T00:38:12;1.08;;;0.80;;
44722;SDS011;30451;48.638;10.624;2022-08-04T00:43:44;1.13;;;0.80;;
44722;SDS011;30451;48.638;10.624;2022-08-04T00:52:17;0.90;;;0.90;;
44722;SDS011;30451;48.638;10.624;2022-08-04T01:00:20;0.77;;;0.75;;
44722;SDS011;30451;48.638;10.624;2022-08-04T01:10:45;1.20;;;0.63;;
44722;SDS011;30451;48.638;10.624;2022-08-04T01:16:16;1.20;;;0.90;;
44722;SDS011;30451;48.638;10.624;2022-08-04T01:19:02;0.82;;;0.77;;
44722;SDS011;30451;48.638;10.624;2022-08-04T01:21:53;1.52;;;1.10;;
44722;SDS011;30451;48.638;10.624;2022-08-04T01:27:29;1.10;;;0.80;;
44722;SDS011;30451;48.638;10.624;2022-08-04T01:30:08;1.20;;;0.80;;
44722;SDS011;30451;48.638;10.624;2022-08-04T01:32:37;2.60;;;0.82;;
44722;SDS011;30451;48.638;10.624;2022-08-04T01:35:13;1.60;;;1.00;;
44722;SDS011;30451;48.638;10.624;2022-08-04T01:40:16;1.40;;;0.85;;
44722;SDS011;30451;48.638;10.624;2022-08-04T01:42:43;1.13;;;0.80;;
44722;SDS011;30451;48.638;10.624;2022-08-04T01:47:41;1.35;;;0.98;;
44722;SDS011;30451;48.638;10.624;2022-08-04T01:50:17;1.10;;;0.90;;
44722;SDS011;30451;48.638;10.624;2022-08-04T01:52:43;0.80;;;0.80;;
44722;SDS011;30451;48.638;10.624;2022-08-04T01:55:10;1.40;;;0.90;;
44722;SDS011;30451;48.638;10.624;2022-08-04T01:57:41;1.00;;;0.90;;
44722;SDS011;30451;48.638;10.624;2022-08-04T02:00:07;0.80;;;0.80;;
44722;SDS011;30451;48.638;10.624;2022-08-04T02:02:38;1.20;;;0.80;;
44722;SDS011;30451;48.638;10.624;2022-08-04T02:05:04;1.17;;;0.80;;
44722;SDS011;30451;48.638;10.624;2022-08-04T02:07:34;1.35;;;1.00;;
44722;SDS011;30451;48.638;10.624;2022-08-04T02:21:38;1.13;;;0.90;;
44722;SDS011;30451;48.638;10.624;2022-08-04T02:24:06;1.00;;;0.90;;
44722;SDS011;30451;48.638;10.624;2022-08-04T02:26:36;1.65;;;1.00;;
44722;SDS011;30451;48.638;10.624;2022-08-04T02:29:15;1.83;;;0.90;;
44722;SDS011;30451;48.638;10.624;2022-08-04T02:34:28;2.05;;;1.10;;
44722;SDS011;30451;48.638;10.624;2022-08-04T02:37:02;1.48;;;0.90;;
44722;SDS011;30451;48.638;10.624;2022-08-04T02:39:33;0.98;;;0.80;;
44722;SDS011;30451;48.638;10.624;2022-08-04T02:42:01;0.90;;;0.80;;
44722;SDS011;30451;48.638;10.624;2022-08-04T02:44:28;1.05;;;0.90;;
44722;SDS011;30451;48.638;10.624;2022-08-04T02:46:55;1.42;;;0.88;;
44722;SDS011;30451;48.638;10.624;2022-08-04T02:49:21;1.17;;;0.90;;
44722;SDS011;30451;48.638;10.624;2022-08-04T02:51:49;1.00;;;0.90;;
44722;SDS011;30451;48.638;10.624;2022-08-04T02:54:18;1.00;;;0.80;;
44722;SDS011;30451;48.638;10.624;2022-08-04T02:56:47;1.25;;;0.85;;
44722;SDS011;30451;48.638;10.624;2022-08-04T02:59:16;2.05;;;0.90;;
44722;SDS011;30451;48.638;10.624;2022-08-04T03:01:47;1.17;;;0.90;;
44722;SDS011;30451;48.638;10.624;2022-08-04T03:29:00;1.77;;;1.10;;
44722;SDS011;30451;48.638;10.624;2022-08-04T03:31:46;2.00;;;1.17;;
44722;SDS011;30451;48.638;10.624;2022-08-04T03:34:41;2.55;;;1.30;;
44722;SDS011;30451;48.638;10.624;2022-08-04T03:37:18;1.40;;;1.10;;
44722;SDS011;30451;48.638;10.624;2022-08-04T03:40:04;1.70;;;1.10;;
44722;SDS011;30451;48.638;10.624;2022-08-04T03:49:20;1.40;;;1.10;;
44722;SDS011;30451;48.638;10.624;2022-08-04T03:52:12;1.95;;;1.17;;
44722;SDS011;30451;48.638;10.624;2022-08-04T03:55:29;1.73;;;1.10;;
44722;SDS011;30451;48.638;10.624;2022-08-04T03:58:30;1.38;;;1.10;;
44722;SDS011;30451;48.638;10.624;2022-08-04T04:01:34;1.75;;;1.10;;
44722;SDS011;30451;48.638;10.624;2022-08-04T04:07:07;1.40;;;1.10;;
44722;SDS011;30451;48.638;10.624;2022-08-04T04:10:01;1.27;;;1.08;;
44722;SDS011;30451;48.638;10.624;2022-08-04T04:15:31;2.20;;;1.20;;
44722;SDS011;30451;48.638;10.624;2022-08-04T04:18:31;2.03;;;1.20;;
44722;SDS011;30451;48.638;10.624;2022-08-04T04:24:01;1.85;;;1.10;;
44722;SDS011;30451;48.638;10.624;2022-08-04T04:26:44;2.72;;;1.30;;
44722;SDS011;30451;48.638;10.624;2022-08-04T04:42:51;1.58;;;1.20;;
44722;SDS011;30451;48.638;10.624;2022-08-04T04:48:37;1.67;;;1.20;;
44722;SDS011;30451;48.638;10.624;2022-08-04T04:59:24;2.20;;;1.50;;
44722;SDS011;30451;48.638;10.624;2022-08-04T05:13:39;3.22;;;1.60;;
44722;SDS011;30451;48.638;10.624;2022-08-04T05:19:09;4.55;;;1.83;;
44722;SDS011;30451;48.638;10.624;2022-08-04T05:21:48;2.40;;;1.55;;
44722;SDS011;30451;48.638;10.624;2022-08-04T05:24:20;2.55;;;1.42;;
44722;SDS011;30451;48.638;10.624;2022-08-04T05:26:51;2.85;;;1.73;;
44722;SDS011;30451;48.638;10.624;2022-08-04T05:31:55;3.95;;;1.80;;
44722;SDS011;30451;48.638;10.624;2022-08-04T05:34:25;3.65;;;1.80;;
44722;SDS011;30451;48.638;10.624;2022-08-04T05:36:56;3.08;;;1.73;;
44722;SDS011;30451;48.638;10.624;2022-08-04T05:39:26;4.18;;;1.83;;
44722;SDS011;30451;48.638;10.624;2022-08-04T05:41:54;3.58;;;1.73;;
44722;SDS011;30451;48.638;10.624;2022-08-04T05:44:22;3.67;;;1.90;;
44722;SDS011;30451;48.638;10.624;2022-08-04T05:46:52;2.92;;;1.75;;
44722;SDS011;30451;48.638;10.624;2022-08-04T05:49:23;4.07;;;2.10;;
44722;SDS011;30451;48.638;10.624;2022-08-04T05:51:51;3.15;;;2.00;;
44722;SDS011;30451;48.638;10.624;2022-08-04T05:54:20;4.13;;;1.80;;
44722;SDS011;30451;48.638;10.624;2022-08-04T05:56:47;3.20;;;1.90;;
44722;SDS011;30451;48.638;10.624;2022-08-04T05:59:14;2.60;;;1.50;;
44722;SDS011;30451;48.638;10.624;2022-08-04T06:01:40;4.13;;;1.80;;
44722;SDS011;30451;48.638;10.624;2022-08-04T06:04:09;3.78;;;1.60;;
44722;SDS011;30451;48.638;10.624;2022-08-04T06:06:36;3.13;;;1.75;;
44722;SDS011;30451;48.638;10.624;2022-08-04T06:09:03;3.90;;;1.67;;
44722;SDS011;30451;48.638;10.624;2022-08-04T06:11:28;3.03;;;1.63;;
44722;SDS011;30451;48.638;10.624;2022-08-04T06:13:58;2.92;;;1.60;;
44722;SDS011;30451;48.638;10.624;2022-08-04T06:16:33;3.05;;;1.70;;
44722;SDS011;30451;48.638;10.624;2022-08-04T06:19:03;2.33;;;1.40;;
44722;SDS011;30451;48.638;10.624;2022-08-04T06:21:34;3.53;;;1.63;;
44722;SDS011;30451;48.638;10.624;2022-08-04T06:24:03;2.55;;;1.48;;
44722;SDS011;30451;48.638;10.624;2022-08-04T06:26:34;2.50;;;1.63;;
44722;SDS011;30451;48.638;10.624;2022-08-04T06:29:00;2.40;;;1.50;;
44722;SDS011;30451;48.638;10.624;2022-08-04T06:31:27;3.30;;;1.52;;
44722;SDS011;30451;48.638;10.624;2022-08-04T06:34:07;1.90;;;1.40;;
44722;SDS011;30451;48.638;10.624;2022-08-04T06:36:34;3.05;;;1.70;;
44722;SDS011;30451;48.638;10.624;2022-08-04T06:39:03;2.28;;;1.35;;
44722;SDS011;30451;48.638;10.624;2022-08-04T06:41:29;2.50;;;1.35;;
44722;SDS011;30451;48.638;10.624;2022-08-04T06:44:04;2.13;;;1.35;;
44722;SDS011;30451;48.638;10.624;2022-08-04T06:46:33;2.67;;;1.65;;
44722;SDS011;30451;48.638;10.624;2022-08-04T06:48:59;2.47;;;1.40;;
44722;SDS011;30451;48.638;10.624;2022-08-04T06:51:26;4.65;;;1.88;;
44722;SDS011;30451;48.638;10.624;2022-08-04T06:53:54;2.57;;;1.37;;
44722;SDS011;30451;48.638;10.624;2022-08-04T06:56:20;2.70;;;1.40;;
44722;SDS011;30451;48.638;10.624;2022-08-04T06:58:49;2.05;;;1.30;;
44722;SDS011;30451;48.638;10.624;2022-08-04T07:01:16;3.28;;;1.60;;
44722;SDS011;30451;48.638;10.624;2022-08-04T07:03:44;2.25;;;1.48;;
44722;SDS011;30451;48.638;10.624;2022-08-04T07:06:11;2.67;;;1.50;;
44722;SDS011;30451;48.638;10.624;2022-08-04T07:08:36;3.50;;;1.50;;
44722;SDS011;30451;48.638;10.624;2022-08-04T07:11:04;2.80;;;1.52;;
44722;SDS011;30451;48.638;10.624;2022-08-04T07:13:30;2.40;;;1.60;;
44722;SDS011;30451;48.638;10.624;2022-08-04T07:15:56;2.47;;;1.30;;
44722;SDS011;30451;48.638;10.624;2022-08-04T07:18:23;2.42;;;1.33;;
44722;SDS011;30451;48.638;10.624;2022-08-04T07:20:49;2.45;;;1.60;;
44722;SDS011;30451;48.638;10.624;2022-08-04T07:23:15;2.80;;;1.40;;
44722;SDS011;30451;48.638;10.624;2022-08-04T07:25:49;2.53;;;1.42;;
44722;SDS011;30451;48.638;10.624;2022-08-04T07:28:20;2.35;;;1.38;;
44722;SDS011;30451;48.638;10.624;2022-08-04T07:30:47;2.10;;;1.20;;
44722;SDS011;30451;48.638;10.624;2022-08-04T07:33:14;2.25;;;1.17;;
44722;SDS011;30451;48.638;10.624;2022-08-04T07:35:42;1.90;;;1.23;;
44722;SDS011;30451;48.638;10.624;2022-08-04T07:38:08;2.35;;;1.20;;
44722;SDS011;30451;48.638;10.624;2022-08-04T07:40:36;1.73;;;1.02;;
44722;SDS011;30451;48.638;10.624;2022-08-04T07:43:02;1.88;;;1.10;;
44722;SDS011;30451;48.638;10.624;2022-08-04T07:45:29;1.73;;;1.15;;
44722;SDS011;30451;48.638;10.624;2022-08-04T07:47:55;2.47;;;1.27;;
44722;SDS011;30451;48.638;10.624;2022-08-04T07:50:21;1.67;;;1.10;;
44722;SDS011;30451;48.638;10.624;2022-08-04T07:52:47;2.22;;;1.30;;
44722;SDS011;30451;48.638;10.624;2022-08-04T07:55:13;2.25;;;1.20;;
44722;SDS011;30451;48.638;10.624;2022-08-04T07:57:40;1.70;;;1.13;;
44722;SDS011;30451;48.638;10.624;2022-08-04T08:00:06;2.60;;;1.50;;
44722;SDS011;30451;48.638;10.624;2022-08-04T08:02:33;1.70;;;1.15;;
44722;SDS011;30451;48.638;10.624;2022-08-04T08:05:00;1.80;;;1.30;;
44722;SDS011;30451;48.638;10.624;2022-08-04T08:07:26;1.50;;;0.95;;
44722;SDS011;30451;48.638;10.624;2022-08-04T08:09:52;1.52;;;1.02;;
44722;SDS011;30451;48.638;10.624;2022-08-04T08:12:17;1.90;;;1.10;;
44722;SDS011;30451;48.638;10.624;2022-08-04T08:14:44;3.00;;;1.40;;
44722;SDS011;30451;48.638;10.624;2022-08-04T08:17:10;2.28;;;1.20;;
44722;SDS011;30451;48.638;10.624;2022-08-04T08:19:36;2.17;;;1.25;;
44722;SDS011;30451;48.638;10.624;2022-08-04T08:22:02;2.58;;;1.30;;
44722;SDS011;30451;48.638;10.624;2022-08-04T08:24:29;1.95;;;1.25;;
44722;SDS011;30451;48.638;10.624;2022-08-04T08:26:59;1.75;;;1.13;;
44722;SDS011;30451;48.638;10.624;2022-08-04T08:29:28;1.88;;;1.20;;
44722;SDS011;30451;48.638;10.624;2022-08-04T08:31:54;2.47;;;1.15;;
44722;SDS011;30451;48.638;10.624;2022-08-04T08:34:21;1.73;;;1.10;;
44722;SDS011;30451;48.638;10.624;2022-08-04T08:36:47;2.70;;;1.13;;
44722;SDS011;30451;48.638;10.624;2022-08-04T08:39:28;2.20;;;1.20;;
44722;SDS011;30451;48.638;10.624;2022-08-04T08:53:05;1.92;;;1.20;;
44722;SDS011;30451;48.638;10.624;2022-08-04T09:02:25;2.08;;;1.25;;
44722;SDS011;30451;48.638;10.624;2022-08-04T09:08:24;1.88;;;1.15;;
44722;SDS011;30451;48.638;10.624;2022-08-04T09:10:57;1.75;;;1.25;;
44722;SDS011;30451;48.638;10.624;2022-08-04T09:13:51;2.42;;;1.20;;
44722;SDS011;30451;48.638;10.624;2022-08-04T09:19:09;1.85;;;1.02;;
44722;SDS011;30451;48.638;10.624;2022-08-04T09:21:50;2.15;;;1.23;;
44722;SDS011;30451;48.638;10.624;2022-08-04T09:27:14;1.58;;;1.10;;
44722;SDS011;30451;48.638;10.624;2022-08-04T09:32:45;2.55;;;1.30;;
44722;SDS011;30451;48.638;10.624;2022-08-04T09:35:41;2.25;;;1.35;;
44722;SDS011;30451;48.638;10.624;2022-08-04T09:38:19;1.80;;;1.20;;
44722;SDS011;30451;48.638;10.624;2022-08-04T09:43:30;1.58;;;1.13;;
44722;SDS011;30451;48.638;10.624;2022-08-04T09:46:14;2.08;;;1.10;;
44722;SDS011;30451;48.638;10.624;2022-08-04T09:49:01;1.63;;;1.13;;
44722;SDS011;30451;48.638;10.624;2022-08-04T09:54:56;2.20;;;1.10;;
44722;SDS011;30451;48.638;10.624;2022-08-04T09:57:44;1.73;;;1.17;;
44722;SDS011;30451;48.638;10.624;2022-08-04T10:00:25;1.30;;;1.10;;
44722;SDS011;30451;48.638;10.624;2022-08-04T10:02:57;1.60;;;1.10;;
44722;SDS011;30451;48.638;10.624;2022-08-04T10:05:25;1.55;;;1.17;;
44722;SDS011;30451;48.638;10.624;2022-08-04T10:08:10;1.35;;;1.10;;
44722;SDS011;30451;48.638;10.624;2022-08-04T10:21:48;1.20;;;1.00;;
44722;SDS011;30451;48.638;10.624;2022-08-04T10:24:30;1.45;;;1.00;;
44722;SDS011;30451;48.638;10.624;2022-08-04T10:29:42;1.25;;;0.90;;
44722;SDS011;30451;48.638;10.624;2022-08-04T10:32:43;1.27;;;0.98;;
44722;SDS011;30451;48.638;10.624;2022-08-04T10:35:13;1.75;;;1.17;;
44722;SDS011;30451;48.638;10.624;2022-08-04T10:37:43;2.25;;;1.20;;
44722;SDS011;30451;48.638;10.624;2022-08-04T10:45:45;1.42;;;1.10;;
44722;SDS011;30451;48.638;10.624;2022-08-04T10:48:18;1.65;;;0.98;;
44722;SDS011;30451;48.638;10.624;2022-08-04T10:50:48;1.42;;;1.10;;
44722;SDS011;30451;48.638;10.624;2022-08-04T10:53:23;1.20;;;1.00;;
44722;SDS011;30451;48.638;10.624;2022-08-04T10:55:58;1.48;;;1.00;;
44722;SDS011;30451;48.638;10.624;2022-08-04T10:58:32;1.90;;;1.00;;
44722;SDS011;30451;48.638;10.624;2022-08-04T11:01:02;1.48;;;0.90;;
44722;SDS011;30451;48.638;10.624;2022-08-04T11:03:40;1.35;;;0.90;;
44722;SDS011;30451;48.638;10.624;2022-08-04T11:06:17;1.70;;;1.10;;
44722;SDS011;30451;48.638;10.624;2022-08-04T11:08:45;1.63;;;1.00;;
44722;SDS011;30451;48.638;10.624;2022-08-04T11:11:26;1.02;;;0.90;;
44722;SDS011;30451;48.638;10.624;2022-08-04T11:14:03;1.40;;;1.10;;
44722;SDS011;30451;48.638;10.624;2022-08-04T11:22:22;1.35;;;1.00;;
44722;SDS011;30451;48.638;10.624;2022-08-04T11:27:49;1.08;;;0.98;;
44722;SDS011;30451;48.638;10.624;2022-08-04T11:30:37;1.20;;;0.98;;
44722;SDS011;30451;48.638;10.624;2022-08-04T11:35:49;1.05;;;0.88;;
44722;SDS011;30451;48.638;10.624;2022-08-04T11:38:32;1.30;;;0.95;;
44722;SDS011;30451;48.638;10.624;2022-08-04T11:41:21;0.93;;;0.83;;
44722;SDS011;30451;48.638;10.624;2022-08-04T11:43:54;1.08;;;0.85;;
44722;SDS011;30451;48.638;10.624;2022-08-04T11:46:26;1.17;;;0.90;;
44722;SDS011;30451;48.638;10.624;2022-08-04T11:49:00;1.90;;;1.20;;
44722;SDS011;30451;48.638;10.624;2022-08-04T11:51:35;1.50;;;0.98;;
44722;SDS011;30451;48.638;10.624;2022-08-04T11:54:03;1.65;;;1.00;;
44722;SDS011;30451;48.638;10.624;2022-08-04T11:56:29;1.33;;;1.00;;
44722;SDS011;30451;48.638;10.624;2022-08-04T11:58:56;1.45;;;1.05;;
44722;SDS011;30451;48.638;10.624;2022-08-04T12:06:31;1.42;;;1.00;;
44722;SDS011;30451;48.638;10.624;2022-08-04T12:09:06;1.23;;;0.90;;
44722;SDS011;30451;48.638;10.624;2022-08-04T12:17:31;1.20;;;0.90;;
44722;SDS011;30451;48.638;10.624;2022-08-04T12:20:04;1.20;;;0.90;;
44722;SDS011;30451;48.638;10.624;2022-08-04T12:22:35;1.63;;;1.00;;
44722;SDS011;30451;48.638;10.624;2022-08-04T12:25:05;1.30;;;0.90;;
44722;SDS011;30451;48.638;10.624;2022-08-04T12:27:36;1.27;;;1.00;;
44722;SDS011;30451;48.638;10.624;2022-08-04T12:30:10;1.13;;;0.90;;
44722;SDS011;30451;48.638;10.624;2022-08-04T12:38:01;1.70;;;1.05;;
44722;SDS011;30451;48.638;10.624;2022-08-04T12:40:30;1.10;;;0.90;;
44722;SDS011;30451;48.638;10.624;2022-08-04T12:46:01;1.38;;;1.05;;
44722;SDS011;30451;48.638;10.624;2022-08-04T12:48:44;1.52;;;1.10;;
44722;SDS011;30451;48.638;10.624;2022-08-04T12:51:11;1.30;;;0.93;;
44722;SDS011;30451;48.638;10.624;2022-08-04T12:53:41;1.23;;;0.90;;
44722;SDS011;30451;48.638;10.624;2022-08-04T12:56:08;2.35;;;0.90;;
44722;SDS011;30451;48.638;10.624;2022-08-04T12:58:36;1.58;;;1.10;;
44722;SDS011;30451;48.638;10.624;2022-08-04T13:01:18;1.10;;;0.90;;
44722;SDS011;30451;48.638;10.624;2022-08-04T13:03:53;0.80;;;0.80;;
44722;SDS011;30451;48.638;10.624;2022-08-04T13:06:23;1.02;;;0.88;;
44722;SDS011;30451;48.638;10.624;2022-08-04T13:09:14;1.52;;;1.02;;
44722;SDS011;30451;48.638;10.624;2022-08-04T13:11:45;1.10;;;0.90;;
44722;SDS011;30451;48.638;10.624;2022-08-04T13:14:16;1.08;;;0.80;;
44722;SDS011;30451;48.638;10.624;2022-08-04T13:16:42;0.80;;;0.80;;
44722;SDS011;30451;48.638;10.624;2022-08-04T13:19:08;0.90;;;0.80;;
44722;SDS011;30451;48.638;10.624;2022-08-04T13:21:34;1.00;;;0.80;;
44722;SDS011;30451;48.638;10.624;2022-08-04T13:24:08;0.80;;;0.60;;
44722;SDS011;30451;48.638;10.624;2022-08-04T13:26:50;0.80;;;0.80;;
44722;SDS011;30451;48.638;10.624;2022-08-04T13:32:03;1.60;;;0.80;;
44722;SDS011;30451;48.638;10.624;2022-08-04T13:34:29;0.80;;;0.80;;
44722;SDS011;30451;48.638;10.624;2022-08-04T13:36:57;0.95;;;0.80;;
44722;SDS011;30451;48.638;10.624;2022-08-04T13:39:25;0.57;;;0.50;;
44722;SDS011;30451;48.638;10.624;2022-08-04T13:41:53;0.85;;;0.75;;
44722;SDS011;30451;48.638;10.624;2022-08-04T13:44:31;1.00;;;0.75;;
44722;SDS011;30451;48.638;10.624;2022-08-04T13:47:07;1.13;;;0.80;;
44722;SDS011;30451;48.638;10.624;2022-08-04T13:49:37;1.75;;;0.73;;
44722;SDS011;30451;48.638;10.624;2022-08-04T13:52:04;0.80;;;0.80;;
44722;SDS011;30451;48.638;10.624;2022-08-04T13:54:35;0.80;;;0.70;;
44722;SDS011;30451;48.638;10.624;2022-08-04T13:57:10;1.63;;;0.88;;
44722;SDS011;30451;48.638;10.624;2022-08-04T13:59:43;0.60;;;0.60;;
44722;SDS011;30451;48.638;10.624;2022-08-04T14:02:22;0.80;;;0.70;;
44722;SDS011;30451;48.638;10.624;2022-08-04T14:04:56;1.10;;;0.90;;
44722;SDS011;30451;48.638;10.624;2022-08-04T14:07:28;1.67;;;0.93;;
44722;SDS011;30451;48.638;10.624;2022-08-04T14:09:56;0.80;;;0.70;;
44722;SDS011;30451;48.638;10.624;2022-08-04T14:12:22;1.00;;;0.75;;
44722;SDS011;30451;48.638;10.624;2022-08-04T14:14:50;1.40;;;0.90;;
44722;SDS011;30451;48.638;10.624;2022-08-04T14:17:18;0.95;;;0.85;;
44722;SDS011;30451;48.638;10.624;2022-08-04T14:25:08;1.05;;;0.80;;
44722;SDS011;30451;48.638;10.624;2022-08-04T14:27:47;1.52;;;0.80;;
44722;SDS011;30451;48.638;10.624;2022-08-04T14:32:59;1.08;;;0.80;;
44722;SDS011;30451;48.638;10.624;2022-08-04T14:35:31;1.73;;;1.00;;
44722;SDS011;30451;48.638;10.624;2022-08-04T14:37:59;1.25;;;0.90;;
44722;SDS011;30451;48.638;10.624;2022-08-04T14:40:27;0.77;;;0.70;;
44722;SDS011;30451;48.638;10.624;2022-08-04T14:42:55;1.55;;;0.90;;
44722;SDS011;30451;48.638;10.624;2022-08-04T14:45:40;1.00;;;0.90;;
44722;SDS011;30451;48.638;10.624;2022-08-04T14:48:09;1.02;;;0.77;;
44722;SDS011;30451;48.638;10.624;2022-08-04T14:50:37;1.57;;;0.90;;
44722;SDS011;30451;48.638;10.624;2022-08-04T14:55:37;1.20;;;0.75;;
44722;SDS011;30451;48.638;10.624;2022-08-04T14:58:04;1.27;;;0.90;;
44722;SDS011;30451;48.638;10.624;2022-08-04T15:00:31;1.15;;;1.00;;
44722;SDS011;30451;48.638;10.624;2022-08-04T15:03:00;0.93;;;0.70;;
44722;SDS011;30451;48.638;10.624;2022-08-04T15:05:32;1.30;;;0.80;;
44722;SDS011;30451;48.638;10.624;2022-08-04T15:07:58;0.88;;;0.70;;
44722;SDS011;30451;48.638;10.624;2022-08-04T15:10:25;1.00;;;0.90;;
44722;SDS011;30451;48.638;10.624;2022-08-04T15:12:50;2.30;;;0.85;;
44722;SDS011;30451;48.638;10.624;2022-08-04T15:15:17;1.42;;;0.90;;
44722;SDS011;30451;48.638;10.624;2022-08-04T15:17:42;1.10;;;0.80;;
44722;SDS011;30451;48.638;10.624;2022-08-04T15:20:09;1.20;;;0.80;;
44722;SDS011;30451;48.638;10.624;2022-08-04T15:22:36;1.00;;;0.80;;
44722;SDS011;30451;48.638;10.624;2022-08-04T15:25:02;1.23;;;0.80;;
44722;SDS011;30451;48.638;10.624;2022-08-04T15:27:30;0.90;;;0.80;;
44722;SDS011;30451;48.638;10.624;2022-08-04T15:29:59;0.80;;;0.80;;
44722;SDS011;30451;48.638;10.624;2022-08-04T15:32:32;1.27;;;0.90;;
44722;SDS011;30451;48.638;10.624;2022-08-04T15:35:04;1.02;;;0.80;;
44722;SDS011;30451;48.638;10.624;2022-08-04T15:40:23;1.48;;;1.02;;
44722;SDS011;30451;48.638;10.624;2022-08-04T15:46:07;0.90;;;0.77;;
44722;SDS011;30451;48.638;10.624;2022-08-04T15:48:32;1.48;;;1.00;;
44722;SDS011;30451;48.638;10.624;2022-08-04T15:50:59;1.48;;;0.98;;
44722;SDS011;30451;48.638;10.624;2022-08-04T15:53:29;0.80;;;0.80;;
44722;SDS011;30451;48.638;10.624;2022-08-04T15:55:55;1.15;;;0.90;;
44722;SDS011;30451;48.638;10.624;2022-08-04T15:58:21;1.38;;;0.73;;
44722;SDS011;30451;48.638;10.624;2022-08-04T16:16:25;0.93;;;0.70;;
44722;SDS011;30451;48.638;10.624;2022-08-04T16:18:51;1.27;;;0.80;;
44722;SDS011;30451;48.638;10.624;2022-08-04T16:21:18;0.70;;;0.60;;
44722;SDS011;30451;48.638;10.624;2022-08-04T16:23:53;0.80;;;0.60;;
44722;SDS011;30451;48.638;10.624;2022-08-04T16:37:06;0.70;;;0.70;;
44722;SDS011;30451;48.638;10.624;2022-08-04T16:39:36;0.70;;;0.70;;
44722;SDS011;30451;48.638;10.624;2022-08-04T16:50:14;0.90;;;0.70;;
44722;SDS011;30451;48.638;10.624;2022-08-04T16:52:44;0.60;;;0.60;;
44722;SDS011;30451;48.638;10.624;2022-08-04T16:55:15;0.68;;;0.50;;
44722;SDS011;30451;48.638;10.624;2022-08-04T16:57:46;0.80;;;0.60;;
44722;SDS011;30451;48.638;10.624;2022-08-04T17:00:12;0.75;;;0.70;;
44722;SDS011;30451;48.638;10.624;2022-08-04T17:02:38;0.65;;;0.65;;
44722;SDS011;30451;48.638;10.624;2022-08-04T17:05:04;0.70;;;0.70;;
44722;SDS011;30451;48.638;10.624;2022-08-04T17:10:16;0.70;;;0.70;;
44722;SDS011;30451;48.638;10.624;2022-08-04T17:12:41;0.60;;;0.60;;
44722;SDS011;30451;48.638;10.624;2022-08-04T17:15:28;0.68;;;0.68;;
44722;SDS011;30451;48.638;10.624;2022-08-04T17:18:12;0.70;;;0.70;;
44722;SDS011;30451;48.638;10.624;2022-08-04T17:20:42;0.60;;;0.60;;
44722;SDS011;30451;48.638;10.624;2022-08-04T17:28:35;0.60;;;0.60;;
44722;SDS011;30451;48.638;10.624;2022-08-04T17:31:02;0.60;;;0.60;;
44722;SDS011;30451;48.638;10.624;2022-08-04T17:33:29;0.60;;;0.60;;
44722;SDS011;30451;48.638;10.624;2022-08-04T17:35:56;0.60;;;0.60;;
44722;SDS011;30451;48.638;10.624;2022-08-04T17:38:30;1.67;;;0.93;;
44722;SDS011;30451;48.638;10.624;2022-08-04T17:41:03;0.50;;;0.50;;
44722;SDS011;30451;48.638;10.624;2022-08-04T17:51:45;0.70;;;0.70;;
44722;SDS011;30451;48.638;10.624;2022-08-04T17:56:57;0.68;;;0.65;;
44722;SDS011;30451;48.638;10.624;2022-08-04T17:59:28;0.60;;;0.60;;
44722;SDS011;30451;48.638;10.624;2022-08-04T18:02:05;1.00;;;0.63;;
44722;SDS011;30451;48.638;10.624;2022-08-04T18:07:32;0.95;;;0.70;;
44722;SDS011;30451;48.638;10.624;2022-08-04T18:10:00;0.70;;;0.70;;
44722;SDS011;30451;48.638;10.624;2022-08-04T18:12:26;0.63;;;0.60;;
44722;SDS011;30451;48.638;10.624;2022-08-04T18:15:01;1.03;;;0.70;;
44722;SDS011;30451;48.638;10.624;2022-08-04T18:17:33;2.83;;;0.70;;
44722;SDS011;30451;48.638;10.624;2022-08-04T18:20:01;1.05;;;0.70;;
44722;SDS011;30451;48.638;10.624;2022-08-04T18:22:29;0.70;;;0.60;;
44722;SDS011;30451;48.638;10.624;2022-08-04T18:24:54;0.60;;;0.60;;
44722;SDS011;30451;48.638;10.624;2022-08-04T18:27:22;0.98;;;0.70;;
44722;SDS011;30451;48.638;10.624;2022-08-04T18:29:49;1.10;;;0.73;;
44722;SDS011;30451;48.638;10.624;2022-08-04T18:32:16;0.73;;;0.65;;
44722;SDS011;30451;48.638;10.624;2022-08-04T18:34:42;0.77;;;0.60;;
44722;SDS011;30451;48.638;10.624;2022-08-04T18:37:07;1.02;;;0.60;;
44722;SDS011;30451;48.638;10.624;2022-08-04T18:39:33;1.08;;;0.60;;
44722;SDS011;30451;48.638;10.624;2022-08-04T18:41:59;0.70;;;0.70;;
44722;SDS011;30451;48.638;10.624;2022-08-04T18:44:25;0.50;;;0.50;;
44722;SDS011;30451;48.638;10.624;2022-08-04T18:46:53;0.70;;;0.60;;
44722;SDS011;30451;48.638;10.624;2022-08-04T18:49:19;0.70;;;0.70;;
44722;SDS011;30451;48.638;10.624;2022-08-04T18:51:48;0.60;;;0.60;;
44722;SDS011;30451;48.638;10.624;2022-08-04T18:54:23;0.70;;;0.60;;
44722;SDS011;30451;48.638;10.624;2022-08-04T18:56:49;0.47;;;0.47;;
44722;SDS011;30451;48.638;10.624;2022-08-04T18:59:17;1.20;;;0.70;;
44722;SDS011;30451;48.638;10.624;2022-08-04T19:01:43;0.55;;;0.55;;
44722;SDS011;30451;48.638;10.624;2022-08-04T19:04:09;0.60;;;0.50;;
44722;SDS011;30451;48.638;10.624;2022-08-04T19:06:35;0.73;;;0.60;;
44722;SDS011;30451;48.638;10.624;2022-08-04T19:09:02;0.60;;;0.60;;
44722;SDS011;30451;48.638;10.624;2022-08-04T19:11:29;2.22;;;0.70;;
44722;SDS011;30451;48.638;10.624;2022-08-04T19:13:57;1.63;;;0.70;;
44722;SDS011;30451;48.638;10.624;2022-08-04T19:16:23;0.90;;;0.60;;
44722;SDS011;30451;48.638;10.624;2022-08-04T19:18:52;1.30;;;0.70;;
44722;SDS011;30451;48.638;10.624;2022-08-04T19:21:18;1.23;;;0.70;;
44722;SDS011;30451;48.638;10.624;2022-08-04T19:23:44;0.60;;;0.60;;
44722;SDS011;30451;48.638;10.624;2022-08-04T19:26:09;0.50;;;0.50;;
44722;SDS011;30451;48.638;10.624;2022-08-04T19:28:35;0.70;;;0.70;;
44722;SDS011;30451;48.638;10.624;2022-08-04T19:31:04;0.65;;;0.60;;
44722;SDS011;30451;48.638;10.624;2022-08-04T19:33:31;0.60;;;0.60;;
44722;SDS011;30451;48.638;10.624;2022-08-04T19:35:57;1.15;;;0.70;;
44722;SDS011;30451;48.638;10.624;2022-08-04T19:38:23;0.55;;;0.50;;
44722;SDS011;30451;48.638;10.624;2022-08-04T19:40:49;0.60;;;0.60;;
44722;SDS011;30451;48.638;10.624;2022-08-04T19:43:14;1.00;;;0.80;;
44722;SDS011;30451;48.638;10.624;2022-08-04T19:45:40;0.93;;;0.65;;
44722;SDS011;30451;48.638;10.624;2022-08-04T19:48:06;1.05;;;0.70;;
44722;SDS011;30451;48.638;10.624;2022-08-04T19:50:31;1.40;;;1.10;;
44722;SDS011;30451;48.638;10.624;2022-08-04T19:52:57;1.27;;;0.85;;
44722;SDS011;30451;48.638;10.624;2022-08-04T19:55:23;1.58;;;1.00;;